Terminal Aerodrome Forecast
Issued by NWS Wilmington, NC

Home | Current Version | Previous Version | Text Only | Print | Product List | Glossary On
Versions: 1 2 3 4 5 6 7 8 9 10 11 12 13 14 15 16 17 18 19 20
000
FTUS42 KILM 252332
TAFLBT
TAF
KLBT 252332Z 2600/2624 06008KT P6SM VCSH FEW015 BKN040
      TEMPO 2607/2610 4SM BR SCT007 BKN015
     FM261200 07007KT P6SM SCT035 BKN050
     FM261800 11007KT P6SM VCSH SCT050 BKN100=

USA.gov is the U.S. government's official web portal to all federal, state and local government web resources and services.